createdAt,value
2022-08-07T00:00:26.404Z,98067.66
2022-08-07T00:02:56.159Z,98067.75
2022-08-07T00:05:25.259Z,98064.22
2022-08-07T00:07:59.537Z,98071.16
2022-08-07T00:10:30.639Z,98066.31
2022-08-07T00:13:17.533Z,98065.28
2022-08-07T00:15:52.708Z,98066.97
2022-08-07T00:18:24.928Z,98074.97
2022-08-07T00:21:08.232Z,98075.75
2022-08-07T00:23:51.692Z,98065.97
2022-08-07T00:26:49.045Z,98071.84
2022-08-07T00:29:06.311Z,98074.59
2022-08-07T00:31:37.685Z,98077.72
2022-08-07T00:34:08.585Z,98074.44
2022-08-07T00:36:38.512Z,98074.88
2022-08-07T00:39:12.867Z,98075.38
2022-08-07T00:42:02.293Z,98081.00
2022-08-07T00:44:38.259Z,98082.94
2022-08-07T00:47:16.120Z,98077.44
2022-08-07T00:50:19.825Z,98082.25
2022-08-07T00:52:47.421Z,98083.91
2022-08-07T00:55:17.342Z,98077.78
2022-08-07T00:57:55.199Z,98079.31
2022-08-07T01:00:24.156Z,98086.81
2022-08-07T01:02:52.086Z,98081.69
2022-08-07T01:05:24.596Z,98078.22
2022-08-07T01:07:52.520Z,98071.31
2022-08-07T01:10:22.560Z,98080.44
2022-08-07T01:12:53.738Z,98076.50
2022-08-07T01:16:00.550Z,98076.16
2022-08-07T01:18:17.168Z,98075.13
2022-08-07T01:20:59.610Z,98074.59
2022-08-07T01:23:37.885Z,98078.50
2022-08-07T01:26:12.365Z,98077.44
2022-08-07T01:28:48.432Z,98071.88
2022-08-07T01:31:42.754Z,98074.31
2022-08-07T01:34:18.581Z,98064.41
2022-08-07T01:36:52.717Z,98064.97
2022-08-07T01:39:41.293Z,98066.03
2022-08-07T01:42:38.706Z,98056.81
2022-08-07T01:45:18.146Z,98059.75
2022-08-07T01:48:18.425Z,98052.38
2022-08-07T01:50:43.001Z,98054.34
2022-08-07T01:53:21.767Z,98052.16
2022-08-07T01:56:02.724Z,98044.44
2022-08-07T01:58:41.052Z,98052.56
2022-08-07T02:01:58.722Z,98049.56
2022-08-07T02:04:17.650Z,98050.69
2022-08-07T02:06:52.218Z,98053.66
2022-08-07T02:09:43.596Z,98058.50
2022-08-07T02:12:18.948Z,98055.66
2022-08-07T02:14:56.182Z,98061.03
2022-08-07T02:17:34.180Z,98055.13
2022-08-07T02:20:09.618Z,98062.63
2022-08-07T02:22:46.790Z,98062.13
2022-08-07T02:26:11.384Z,98058.81
2022-08-07T02:28:12.835Z,98057.19
2022-08-07T02:30:42.657Z,98054.31
2022-08-07T02:33:11.331Z,98057.84
2022-08-07T02:36:28.291Z,98065.47
2022-08-07T02:38:37.304Z,98063.31
2022-08-07T02:41:08.008Z,98065.19
2022-08-07T02:43:41.166Z,98056.69
2022-08-07T02:46:16.485Z,98064.63
2022-08-07T02:48:55.113Z,98065.06
2022-08-07T02:51:41.834Z,98062.34
2022-08-07T02:54:13.178Z,98055.50
2022-08-07T02:56:44.028Z,98069.91
2022-08-07T02:59:23.912Z,98063.56
2022-08-07T03:02:01.157Z,98061.75
2022-08-07T03:04:31.242Z,98057.72
2022-08-07T03:07:07.060Z,98058.16
2022-08-07T03:09:44.659Z,98062.72
2022-08-07T03:12:22.609Z,98063.59
2022-08-07T03:15:07.738Z,98055.78
2022-08-07T03:17:52.921Z,98061.44
2022-08-07T03:20:24.142Z,98062.31
2022-08-07T03:22:55.154Z,98069.63
2022-08-07T03:25:23.994Z,98072.00
2022-08-07T03:28:09.192Z,98069.09
2022-08-07T03:30:46.574Z,98065.41
2022-08-07T03:33:15.832Z,98063.28
2022-08-07T03:35:50.452Z,98063.09
2022-08-07T03:38:21.479Z,98059.75
2022-08-07T03:41:01.593Z,98057.88
2022-08-07T03:43:33.481Z,98074.38
2022-08-07T03:46:18.244Z,98070.72
2022-08-07T03:49:02.929Z,98070.94
2022-08-07T03:51:47.791Z,98079.13
2022-08-07T03:54:35.285Z,98077.78
2022-08-07T03:58:33.614Z,98081.31
2022-08-07T04:00:02.806Z,98084.94
2022-08-07T04:02:47.342Z,98085.81
2022-08-07T04:05:40.508Z,98089.31
2022-08-07T04:08:16.012Z,98103.13
2022-08-07T04:10:54.163Z,98092.84
2022-08-07T04:14:33.172Z,98090.31
2022-08-07T04:16:31.173Z,98092.19
2022-08-07T04:19:12.578Z,98096.75
2022-08-07T04:21:58.736Z,98086.56
2022-08-07T04:24:38.892Z,98099.19
2022-08-07T04:27:15.234Z,98094.16
2022-08-07T04:30:02.230Z,98100.63
2022-08-07T04:32:47.917Z,98101.16
2022-08-07T04:35:17.131Z,98095.22
2022-08-07T04:38:02.912Z,98091.16
2022-08-07T04:40:33.027Z,98090.13
2022-08-07T04:43:03.302Z,98088.25
2022-08-07T04:46:12.439Z,98080.09
2022-08-07T04:48:56.413Z,98084.59
2022-08-07T04:51:49.294Z,98079.34
2022-08-07T04:54:51.203Z,98084.97
2022-08-07T04:58:07.936Z,98088.97
2022-08-07T05:01:30.300Z,98091.56
2022-08-07T05:04:47.084Z,98098.47
2022-08-07T05:07:30.480Z,98090.50
2022-08-07T05:10:35.465Z,98090.22
2022-08-07T05:14:53.679Z,98099.84
2022-08-07T05:16:14.350Z,98104.47
2022-08-07T05:18:53.403Z,98102.25
2022-08-07T05:22:00.495Z,98102.94
2022-08-07T05:24:17.948Z,98110.75
2022-08-07T05:26:49.670Z,98106.09
2022-08-07T05:29:20.582Z,98102.75
2022-08-07T05:31:52.830Z,98108.53
2022-08-07T05:34:27.707Z,98107.94
2022-08-07T05:36:56.352Z,98107.47
2022-08-07T05:40:16.858Z,98109.97
2022-08-07T05:42:33.206Z,98114.66
2022-08-07T05:45:14.216Z,98110.72
2022-08-07T05:48:01.746Z,98119.66
2022-08-07T05:50:39.351Z,98127.81
2022-08-07T05:54:12.473Z,98126.97
2022-08-07T05:56:03.085Z,98125.69
2022-08-07T05:58:39.045Z,98123.09
2022-08-07T06:01:12.326Z,98123.84
2022-08-07T06:03:58.535Z,98128.53
2022-08-07T06:06:34.333Z,98129.41
2022-08-07T06:09:05.722Z,98125.28
2022-08-07T06:11:38.263Z,98131.22
2022-08-07T06:14:11.730Z,98123.56
2022-08-07T06:16:56.323Z,98121.56
2022-08-07T06:19:58.063Z,98124.34
2022-08-07T06:22:24.086Z,98119.78
2022-08-07T06:25:18.361Z,98121.03
2022-08-07T06:28:01.791Z,98130.28
2022-08-07T06:30:35.976Z,98122.47
2022-08-07T06:33:16.858Z,98121.50
2022-08-07T06:36:12.201Z,98126.72
2022-08-07T06:38:39.480Z,98132.59
2022-08-07T06:42:03.834Z,98126.97
2022-08-07T06:44:53.079Z,98136.69
2022-08-07T06:47:22.031Z,98137.88
2022-08-07T06:49:58.498Z,98139.75
2022-08-07T06:52:36.865Z,98132.19
2022-08-07T06:55:53.769Z,98147.75
2022-08-07T06:58:21.595Z,98146.72
2022-08-07T07:01:00.353Z,98146.47
2022-08-07T07:03:48.663Z,98146.00
2022-08-07T07:06:23.753Z,98139.81
2022-08-07T07:08:55.195Z,98131.66
2022-08-07T07:12:09.168Z,98132.69
2022-08-07T07:14:15.017Z,98142.59
2022-08-07T07:16:49.550Z,98147.25
2022-08-07T07:19:55.101Z,98136.25
2022-08-07T07:22:35.871Z,98138.44
2022-08-07T07:26:30.591Z,98134.47
2022-08-07T07:28:29.926Z,98141.94
2022-08-07T07:31:30.439Z,98137.88
2022-08-07T07:34:13.390Z,98137.13
2022-08-07T07:36:47.959Z,98127.53
2022-08-07T07:39:25.549Z,98121.16
2022-08-07T07:42:13.157Z,98119.22
2022-08-07T07:44:49.708Z,98125.47
2022-08-07T07:47:23.683Z,98125.19
2022-08-07T07:50:34.011Z,98121.63
2022-08-07T07:52:46.875Z,98113.69
2022-08-07T07:55:17.929Z,98112.03
2022-08-07T07:57:54.034Z,98118.84
2022-08-07T08:00:34.271Z,98120.34
2022-08-07T08:04:10.549Z,98109.56
2022-08-07T08:06:06.422Z,98105.47
2022-08-07T08:08:42.171Z,98105.56
2022-08-07T08:11:16.019Z,98105.16
2022-08-07T08:13:54.115Z,98107.66
2022-08-07T08:16:35.269Z,98102.56
2022-08-07T08:20:18.198Z,98100.63
2022-08-07T08:22:34.831Z,98098.06
2022-08-07T08:25:41.160Z,98104.91
2022-08-07T08:28:24.146Z,98105.56
2022-08-07T08:31:06.971Z,98108.38
2022-08-07T08:33:37.063Z,98103.97
2022-08-07T08:36:08.965Z,98106.66
2022-08-07T08:38:45.224Z,98104.59
2022-08-07T08:41:58.682Z,98111.72
2022-08-07T08:44:29.569Z,98110.59
2022-08-07T08:47:22.519Z,98109.03
2022-08-07T08:50:34.786Z,98116.00
2022-08-07T08:53:26.518Z,98125.13
2022-08-07T08:55:59.509Z,98120.22
2022-08-07T08:59:06.528Z,98128.41
2022-08-07T09:02:13.458Z,98124.50
2022-08-07T09:05:09.604Z,98142.19
2022-08-07T09:08:06.851Z,98130.91
2022-08-07T09:11:10.930Z,98129.78
2022-08-07T09:13:43.885Z,98133.44
2022-08-07T09:16:52.067Z,98135.44
2022-08-07T09:19:53.503Z,98137.47
2022-08-07T09:24:31.769Z,98144.53
2022-08-07T09:25:54.221Z,98143.38
2022-08-07T09:30:03.128Z,98145.38
2022-08-07T09:31:57.773Z,98145.69
2022-08-07T09:36:04.505Z,98140.34
2022-08-07T09:38:10.335Z,98134.09
2022-08-07T09:41:19.493Z,98135.47
2022-08-07T09:44:32.827Z,98129.94
2022-08-07T09:48:03.753Z,98129.25
2022-08-07T09:52:16.435Z,98128.13
2022-08-07T09:54:35.330Z,98122.16
2022-08-07T09:57:46.369Z,98115.13
2022-08-07T10:00:30.020Z,98114.00
2022-08-07T10:04:06.049Z,98111.50
2022-08-07T10:06:17.482Z,98099.63
2022-08-07T10:08:55.530Z,98100.84
2022-08-07T10:12:01.331Z,98090.13
2022-08-07T10:14:31.211Z,98085.25
2022-08-07T10:17:13.375Z,98088.09
2022-08-07T10:20:21.804Z,98085.03
2022-08-07T10:23:16.965Z,98081.69
2022-08-07T10:26:24.665Z,98084.06
2022-08-07T10:29:51.763Z,98082.56
2022-08-07T10:32:51.291Z,98079.22
2022-08-07T10:36:05.634Z,98071.38
2022-08-07T10:39:20.178Z,98062.44
2022-08-07T10:42:20.680Z,98073.34
2022-08-07T10:45:11.897Z,98073.28
2022-08-07T10:48:04.805Z,98068.88
2022-08-07T10:51:16.318Z,98070.72
2022-08-07T10:54:33.866Z,98070.69
2022-08-07T10:57:13.699Z,98067.66
2022-08-07T10:59:53.687Z,98057.66
2022-08-07T11:02:53.611Z,98061.75
2022-08-07T11:06:21.902Z,98068.91
2022-08-07T11:08:55.324Z,98060.63
2022-08-07T11:11:45.533Z,98058.59
2022-08-07T11:15:00.391Z,98064.78
2022-08-07T11:17:57.011Z,98057.53
2022-08-07T11:20:56.586Z,98051.44
2022-08-07T11:23:58.115Z,98048.41
2022-08-07T11:26:34.340Z,98054.03
2022-08-07T11:29:48.148Z,98052.91
2022-08-07T11:32:31.076Z,98048.59
2022-08-07T11:35:09.339Z,98044.97
2022-08-07T11:38:26.106Z,98048.47
2022-08-07T11:41:06.110Z,98048.03
2022-08-07T11:44:12.145Z,98039.06
2022-08-07T11:47:13.747Z,98032.91
2022-08-07T11:50:31.156Z,98030.28
2022-08-07T11:53:43.185Z,98025.31
2022-08-07T11:57:00.343Z,98028.56
2022-08-07T12:00:11.550Z,98027.72
2022-08-07T12:03:41.281Z,98024.53
2022-08-07T12:06:50.785Z,98025.00
2022-08-07T12:09:56.388Z,98026.97
2022-08-07T12:12:35.581Z,98023.09
2022-08-07T12:15:46.412Z,98026.31
2022-08-07T12:18:50.647Z,98021.69
2022-08-07T12:22:35.646Z,98017.56
2022-08-07T12:26:21.418Z,98017.47
2022-08-07T12:28:49.815Z,98014.50
2022-08-07T12:32:03.687Z,98019.63
2022-08-07T12:34:38.909Z,98020.22
2022-08-07T12:37:22.875Z,98021.59
2022-08-07T12:39:53.033Z,98017.91
2022-08-07T12:42:27.724Z,98013.63
2022-08-07T12:45:06.478Z,98006.53
2022-08-07T12:48:27.787Z,97997.78
2022-08-07T12:51:17.325Z,97998.34
2022-08-07T12:54:37.017Z,97994.19
2022-08-07T12:57:09.790Z,97998.38
2022-08-07T12:59:54.882Z,98000.28
2022-08-07T13:02:50.913Z,97992.94
2022-08-07T13:06:04.043Z,97986.66
2022-08-07T13:09:02.605Z,97991.16
2022-08-07T13:12:36.386Z,97991.38
2022-08-07T13:15:14.288Z,97995.88
2022-08-07T13:18:26.462Z,97991.63
2022-08-07T13:21:57.294Z,97986.22
2022-08-07T13:24:52.147Z,97984.00
2022-08-07T13:28:12.631Z,97976.66
2022-08-07T13:30:40.416Z,97980.38
2022-08-07T13:34:30.403Z,97981.41
2022-08-07T13:36:57.712Z,97967.22
2022-08-07T13:40:35.177Z,97976.97
2022-08-07T13:42:39.977Z,97974.72
2022-08-07T13:45:20.672Z,97974.53
2022-08-07T13:48:05.414Z,97965.91
2022-08-07T13:50:55.673Z,97960.84
2022-08-07T13:54:01.410Z,97975.00
2022-08-07T13:56:35.755Z,97968.22
2022-08-07T13:59:27.147Z,97966.56
2022-08-07T14:02:19.374Z,97961.84
2022-08-07T14:05:07.729Z,97965.59
2022-08-07T14:08:00.027Z,97961.16
2022-08-07T14:10:42.261Z,97953.44
2022-08-07T14:13:18.636Z,97962.75
2022-08-07T14:16:16.054Z,97953.75
2022-08-07T14:18:57.160Z,97949.25
2022-08-07T14:22:41.260Z,97950.06
2022-08-07T14:24:48.196Z,97943.78
2022-08-07T14:28:12.437Z,97942.72
2022-08-07T14:30:12.973Z,97942.06
2022-08-07T14:32:54.536Z,97941.72
2022-08-07T14:35:45.487Z,97943.25
2022-08-07T14:41:15.050Z,97935.06
2022-08-07T14:46:36.130Z,97931.97
2022-08-07T14:49:55.928Z,97933.09
2022-08-07T14:52:02.800Z,97928.19
2022-08-07T14:54:41.716Z,97936.06
2022-08-07T14:57:19.603Z,97928.47
2022-08-07T15:00:05.036Z,97917.06
2022-08-07T15:02:37.399Z,97912.13
2022-08-07T15:05:20.217Z,97912.19
2022-08-07T15:07:53.383Z,97905.59
2022-08-07T15:10:29.862Z,97902.16
2022-08-07T15:16:02.578Z,97903.09
2022-08-07T15:18:45.463Z,97902.34
2022-08-07T15:21:44.139Z,97900.91
2022-08-07T15:27:32.802Z,97891.16
2022-08-07T15:30:16.524Z,97890.19
2022-08-07T15:33:04.056Z,97887.81
2022-08-07T15:36:01.475Z,97890.66
2022-08-07T15:38:31.027Z,97888.91
2022-08-07T15:41:23.713Z,97894.09
2022-08-07T15:44:13.116Z,97888.59
2022-08-07T15:46:51.658Z,97892.25
2022-08-07T15:50:05.885Z,97890.03
2022-08-07T15:52:17.000Z,97891.00
2022-08-07T15:54:47.710Z,97891.31
2022-08-07T15:57:39.833Z,97886.91
2022-08-07T16:00:31.767Z,97880.91
2022-08-07T16:03:04.962Z,97879.66
2022-08-07T16:05:33.771Z,97880.59
2022-08-07T16:08:32.211Z,97882.50
2022-08-07T16:11:27.404Z,97878.72
2022-08-07T16:14:29.954Z,97883.13
2022-08-07T16:17:15.436Z,97882.66
2022-08-07T16:20:33.110Z,97876.50
2022-08-07T16:23:54.045Z,97876.19
2022-08-07T16:26:31.220Z,97874.16
2022-08-07T16:30:10.206Z,97871.63
2022-08-07T16:32:46.268Z,97870.16
2022-08-07T16:35:52.147Z,97865.44
2022-08-07T16:39:01.060Z,97874.25
2022-08-07T16:42:12.669Z,97865.59
2022-08-07T16:45:15.007Z,97868.25
2022-08-07T16:48:53.626Z,97867.31
2022-08-07T16:51:54.421Z,97855.28
2022-08-07T16:54:55.929Z,97860.03
2022-08-07T16:58:04.364Z,97862.06
2022-08-07T17:00:44.653Z,97862.53
2022-08-07T17:03:17.531Z,97867.13
2022-08-07T17:06:29.362Z,97863.16
2022-08-07T17:09:14.390Z,97864.25
2022-08-07T17:12:36.849Z,97868.81
2022-08-07T17:15:15.587Z,97868.69
2022-08-07T17:17:57.159Z,97864.88
2022-08-07T17:20:29.697Z,97861.25
2022-08-07T17:23:20.199Z,97856.03
2022-08-07T17:26:51.787Z,97858.66
2022-08-07T17:30:14.177Z,97867.34
2022-08-07T17:34:08.366Z,97857.22
2022-08-07T17:36:00.863Z,97861.00
2022-08-07T17:38:47.515Z,97858.13
2022-08-07T17:42:02.065Z,97861.75
2022-08-07T17:44:49.794Z,97860.41
2022-08-07T17:47:58.306Z,97862.06
2022-08-07T17:50:58.401Z,97866.94
2022-08-07T17:54:01.633Z,97868.00
2022-08-07T17:56:49.870Z,97863.53
2022-08-07T17:59:35.927Z,97864.75
2022-08-07T18:03:00.190Z,97866.56
2022-08-07T18:06:02.468Z,97867.97
2022-08-07T18:09:02.309Z,97863.16
2022-08-07T18:12:16.602Z,97869.63
2022-08-07T18:15:15.946Z,97871.94
2022-08-07T18:18:47.119Z,97869.19
2022-08-07T18:21:42.064Z,97873.53
2022-08-07T18:24:34.263Z,97871.28
2022-08-07T18:27:21.897Z,97870.00
2022-08-07T18:30:31.544Z,97879.22
2022-08-07T18:33:35.096Z,97883.78
2022-08-07T18:36:33.445Z,97880.22
2022-08-07T18:40:08.819Z,97879.66
2022-08-07T18:42:56.303Z,97877.16
2022-08-07T18:46:24.466Z,97877.47
2022-08-07T18:50:33.187Z,97885.78
2022-08-07T18:52:40.952Z,97882.44
2022-08-07T18:56:00.118Z,97894.91
2022-08-07T18:59:46.897Z,97893.00
2022-08-07T19:02:45.338Z,97895.56
2022-08-07T19:06:03.235Z,97904.53
2022-08-07T19:08:50.619Z,97903.81
2022-08-07T19:11:37.395Z,97893.94
2022-08-07T19:14:36.617Z,97902.34
2022-08-07T19:17:14.458Z,97895.56
2022-08-07T19:21:09.801Z,97900.97
2022-08-07T19:23:58.452Z,97910.53
2022-08-07T19:27:10.360Z,97902.81
2022-08-07T19:31:00.549Z,97904.47
2022-08-07T19:32:39.543Z,97901.41
2022-08-07T19:35:28.358Z,97900.19
2022-08-07T19:38:17.369Z,97903.22
2022-08-07T19:40:50.360Z,97905.69
2022-08-07T19:43:46.093Z,97901.13
2022-08-07T19:46:19.127Z,97896.78
2022-08-07T19:49:00.151Z,97902.03
2022-08-07T19:51:52.568Z,97901.66
2022-08-07T19:54:34.121Z,97900.75
2022-08-07T19:58:01.570Z,97900.97
2022-08-07T20:00:28.436Z,97911.63
2022-08-07T20:03:02.947Z,97908.63
2022-08-07T20:06:00.746Z,97909.41
2022-08-07T20:08:35.901Z,97908.13
2022-08-07T20:11:14.941Z,97908.19
2022-08-07T20:13:55.368Z,97906.59
2022-08-07T20:16:35.454Z,97910.13
2022-08-07T20:19:10.938Z,97908.22
2022-08-07T20:21:47.732Z,97900.84
2022-08-07T20:24:28.720Z,97906.63
2022-08-07T20:27:02.494Z,97899.72
2022-08-07T20:29:47.848Z,97892.44
2022-08-07T20:32:43.471Z,97905.25
2022-08-07T20:35:26.344Z,97901.09
2022-08-07T20:37:58.935Z,97902.03
2022-08-07T20:40:34.749Z,97912.41
2022-08-07T20:43:09.632Z,97915.66
2022-08-07T20:46:26.611Z,97910.97
2022-08-07T20:48:34.842Z,97914.41
2022-08-07T20:51:09.378Z,97917.03
2022-08-07T20:54:03.021Z,97928.34
2022-08-07T20:56:33.568Z,97924.72
2022-08-07T20:59:06.067Z,97931.25
2022-08-07T21:01:58.537Z,97935.66
2022-08-07T21:04:30.257Z,97932.78
2022-08-07T21:07:03.925Z,97932.81
2022-08-07T21:09:52.700Z,97929.88
2022-08-07T21:12:32.179Z,97928.59
2022-08-07T21:15:05.399Z,97929.50
2022-08-07T21:18:01.773Z,97927.44
2022-08-07T21:20:29.585Z,97920.81
2022-08-07T21:23:08.095Z,97919.72
2022-08-07T21:25:58.552Z,97910.94
2022-08-07T21:29:00.724Z,97919.69
2022-08-07T21:32:42.604Z,97922.28
2022-08-07T21:35:11.351Z,97919.28
2022-08-07T21:37:59.281Z,97934.28
2022-08-07T21:40:58.073Z,97932.69
2022-08-07T21:43:56.075Z,97930.94
2022-08-07T21:46:51.465Z,97927.25
2022-08-07T21:50:00.675Z,97924.84
2022-08-07T21:52:44.143Z,97920.34
2022-08-07T21:55:27.886Z,97918.31
2022-08-07T21:58:30.459Z,97929.22
2022-08-07T22:02:10.803Z,97925.72
2022-08-07T22:04:35.397Z,97920.72
2022-08-07T22:07:14.758Z,97920.69
2022-08-07T22:09:54.434Z,97916.97
2022-08-07T22:12:44.637Z,97924.06
2022-08-07T22:16:40.096Z,97919.00
2022-08-07T22:18:47.451Z,97914.41
2022-08-07T22:22:21.253Z,97918.53
2022-08-07T22:25:11.279Z,97927.94
2022-08-07T22:28:06.421Z,97929.50
2022-08-07T22:31:59.017Z,97919.91
2022-08-07T22:35:16.009Z,97917.94
2022-08-07T22:38:24.294Z,97913.44
2022-08-07T22:41:16.333Z,97907.84
2022-08-07T22:43:58.749Z,97903.88
2022-08-07T22:47:04.071Z,97904.38
2022-08-07T22:50:21.015Z,97895.84
2022-08-07T22:54:07.001Z,97905.06
2022-08-07T22:56:56.736Z,97897.00
2022-08-07T22:59:56.824Z,97895.66
2022-08-07T23:02:57.204Z,97898.88
2022-08-07T23:06:14.752Z,97898.31
2022-08-07T23:10:04.610Z,97907.66
2022-08-07T23:12:34.621Z,97897.56
2022-08-07T23:16:05.969Z,97896.31
2022-08-07T23:18:33.478Z,97900.56
2022-08-07T23:21:30.238Z,97904.59
2022-08-07T23:25:01.580Z,97900.63
2022-08-07T23:28:21.723Z,97903.53
2022-08-07T23:32:48.733Z,97900.75
2022-08-07T23:34:45.998Z,97898.94
2022-08-07T23:38:00.726Z,97894.75
2022-08-07T23:40:41.967Z,97895.31
2022-08-07T23:43:37.559Z,97888.88
2022-08-07T23:46:10.936Z,97888.28
2022-08-07T23:49:03.195Z,97892.25
2022-08-07T23:52:58.452Z,97881.31
2022-08-07T23:54:46.090Z,97879.69
2022-08-07T23:57:41.640Z,97879.28
